Crary, North Dakota
Current Conditions -  °F | °C
As of 11:35 PM on Thursday 30 Oct 2014 (Local Time) from KDVL Reporting Station
Clear Clear  
Wind Chill: 14°   Ceiling: Unl
Heat Index: 21°   Visibility: 10mi
Dew Point: 10°   Wind: 6mph
Humidity: 63%   Direction: 30°NNE
Pressure: 30.56"   Gusts: NA
Location:  48.07°N, 98.64°W
Report Text: KDVL 310435Z AUTO 03005KT 10SM CLR M06/M12 A3056 RMK AO1
Loading
Personal Weather Stations






























Interactive Weather Map
Tropical Storm Tracking
New forecast layout! Learn more

10-Day Weather Forecast

Advertisements
Track Severe Weather on mobile